sensor_id;sensor_type;location;lat;lon;timestamp;pressure;altitude;pressure_sealevel;temperature;humidity
8101;BME280;4093;53.470;9.832;2023-08-20T00:01:23;101999.78;;;24.92;76.89
8101;BME280;4093;53.470;9.832;2023-08-20T00:03:52;101986.84;;;24.72;76.43
8101;BME280;4093;53.470;9.832;2023-08-20T00:06:21;101996.69;;;24.69;76.87
8101;BME280;4093;53.470;9.832;2023-08-20T00:08:50;101970.66;;;24.46;76.84
8101;BME280;4093;53.470;9.832;2023-08-20T00:11:19;101992.16;;;24.56;76.75
8101;BME280;4093;53.470;9.832;2023-08-20T00:13:46;101992.25;;;24.54;77.83
8101;BME280;4093;53.470;9.832;2023-08-20T00:16:14;102000.59;;;24.62;77.50
8101;BME280;4093;53.470;9.832;2023-08-20T00:18:43;101999.91;;;24.43;78.28
8101;BME280;4093;53.470;9.832;2023-08-20T00:21:11;102002.38;;;24.46;77.67
8101;BME280;4093;53.470;9.832;2023-08-20T00:23:39;102001.19;;;24.52;76.98
8101;BME280;4093;53.470;9.832;2023-08-20T00:26:07;101994.94;;;24.21;78.13
8101;BME280;4093;53.470;9.832;2023-08-20T00:28:37;101991.78;;;24.14;78.22
8101;BME280;4093;53.470;9.832;2023-08-20T00:31:05;101995.69;;;24.07;77.86
8101;BME280;4093;53.470;9.832;2023-08-20T00:33:32;101989.38;;;23.59;77.96
8101;BME280;4093;53.470;9.832;2023-08-20T00:36:00;101998.59;;;23.17;81.18
8101;BME280;4093;53.470;9.832;2023-08-20T00:38:28;102012.84;;;23.65;78.73
8101;BME280;4093;53.470;9.832;2023-08-20T00:40:56;102010.38;;;23.45;78.25
8101;BME280;4093;53.470;9.832;2023-08-20T00:43:24;102020.63;;;23.51;77.88
8101;BME280;4093;53.470;9.832;2023-08-20T00:45:53;102014.31;;;23.19;79.77
8101;BME280;4093;53.470;9.832;2023-08-20T00:48:21;102019.69;;;23.35;78.14
8101;BME280;4093;53.470;9.832;2023-08-20T00:50:49;102018.22;;;23.46;77.73
8101;BME280;4093;53.470;9.832;2023-08-20T00:53:17;102005.41;;;23.04;78.68
8101;BME280;4093;53.470;9.832;2023-08-20T00:55:45;102018.69;;;22.83;80.33
8101;BME280;4093;53.470;9.832;2023-08-20T00:58:13;102022.41;;;22.79;80.39
8101;BME280;4093;53.470;9.832;2023-08-20T01:00:42;102013.59;;;22.61;80.57
8101;BME280;4093;53.470;9.832;2023-08-20T01:03:11;102019.38;;;22.87;78.46
8101;BME280;4093;53.470;9.832;2023-08-20T01:05:43;102011.09;;;22.58;79.67
8101;BME280;4093;53.470;9.832;2023-08-20T01:08:23;102019.53;;;22.84;78.22
8101;BME280;4093;53.470;9.832;2023-08-20T01:10:57;102017.16;;;22.60;78.91
8101;BME280;4093;53.470;9.832;2023-08-20T01:13:28;102016.13;;;22.82;77.87
8101;BME280;4093;53.470;9.832;2023-08-20T01:15:56;102015.66;;;22.55;77.73
8101;BME280;4093;53.470;9.832;2023-08-20T01:18:25;102017.50;;;22.34;79.62
8101;BME280;4093;53.470;9.832;2023-08-20T01:20:56;102014.22;;;22.67;77.75
8101;BME280;4093;53.470;9.832;2023-08-20T01:23:43;102020.25;;;22.69;77.42
8101;BME280;4093;53.470;9.832;2023-08-20T01:26:24;102020.38;;;22.84;77.25
8101;BME280;4093;53.470;9.832;2023-08-20T01:28:57;102022.09;;;22.85;76.66
8101;BME280;4093;53.470;9.832;2023-08-20T01:31:25;102012.88;;;22.39;77.27
8101;BME280;4093;53.470;9.832;2023-08-20T01:33:54;102004.56;;;22.09;79.45
8101;BME280;4093;53.470;9.832;2023-08-20T01:36:24;102013.81;;;22.19;77.81
8101;BME280;4093;53.470;9.832;2023-08-20T01:38:52;102016.09;;;22.27;78.85
8101;BME280;4093;53.470;9.832;2023-08-20T01:41:19;102020.66;;;22.23;78.46
8101;BME280;4093;53.470;9.832;2023-08-20T01:43:47;102018.44;;;22.33;77.59
8101;BME280;4093;53.470;9.832;2023-08-20T01:46:16;102013.59;;;22.43;76.95
8101;BME280;4093;53.470;9.832;2023-08-20T01:48:44;102017.66;;;21.91;80.25
8101;BME280;4093;53.470;9.832;2023-08-20T01:51:12;102021.88;;;22.14;78.49
8101;BME280;4093;53.470;9.832;2023-08-20T01:53:39;102022.00;;;22.32;77.79
8101;BME280;4093;53.470;9.832;2023-08-20T01:56:11;102015.56;;;22.37;77.24
8101;BME280;4093;53.470;9.832;2023-08-20T01:58:38;102014.31;;;22.27;77.26
8101;BME280;4093;53.470;9.832;2023-08-20T02:01:06;102011.44;;;22.13;77.86
8101;BME280;4093;53.470;9.832;2023-08-20T02:03:36;102010.75;;;22.28;77.36
8101;BME280;4093;53.470;9.832;2023-08-20T02:06:04;102011.19;;;22.19;77.34
8101;BME280;4093;53.470;9.832;2023-08-20T02:08:32;102016.91;;;21.26;80.69
8101;BME280;4093;53.470;9.832;2023-08-20T02:11:00;102029.06;;;21.51;80.08
8101;BME280;4093;53.470;9.832;2023-08-20T02:13:29;102034.00;;;21.79;78.11
8101;BME280;4093;53.470;9.832;2023-08-20T02:16:00;102030.91;;;21.69;78.04
8101;BME280;4093;53.470;9.832;2023-08-20T02:18:28;102035.78;;;21.79;76.69
8101;BME280;4093;53.470;9.832;2023-08-20T02:20:57;102026.91;;;21.40;78.60
8101;BME280;4093;53.470;9.832;2023-08-20T02:23:25;102025.75;;;21.03;81.71
8101;BME280;4093;53.470;9.832;2023-08-20T02:25:53;102034.47;;;21.48;78.53
8101;BME280;4093;53.470;9.832;2023-08-20T02:28:21;102022.56;;;21.60;77.13
8101;BME280;4093;53.470;9.832;2023-08-20T02:30:49;102029.84;;;21.11;79.95
8101;BME280;4093;53.470;9.832;2023-08-20T02:33:17;102033.34;;;21.54;78.61
8101;BME280;4093;53.470;9.832;2023-08-20T02:35:44;102024.25;;;21.61;78.19
8101;BME280;4093;53.470;9.832;2023-08-20T02:38:13;102026.34;;;21.53;78.99
8101;BME280;4093;53.470;9.832;2023-08-20T02:40:41;102029.13;;;21.70;78.75
8101;BME280;4093;53.470;9.832;2023-08-20T02:43:09;102021.91;;;21.55;79.61
8101;BME280;4093;53.470;9.832;2023-08-20T02:45:41;102028.59;;;21.62;80.08
8101;BME280;4093;53.470;9.832;2023-08-20T02:48:09;102026.59;;;21.26;82.17
8101;BME280;4093;53.470;9.832;2023-08-20T02:50:37;101988.00;;;21.05;83.11
8101;BME280;4093;53.470;9.832;2023-08-20T02:53:05;102035.84;;;21.14;84.22
8101;BME280;4093;53.470;9.832;2023-08-20T02:55:34;102049.84;;;21.15;85.76
8101;BME280;4093;53.470;9.832;2023-08-20T02:58:02;102049.44;;;21.03;85.92
8101;BME280;4093;53.470;9.832;2023-08-20T03:00:30;102054.44;;;21.10;86.61
8101;BME280;4093;53.470;9.832;2023-08-20T03:02:58;102062.09;;;21.38;86.40
8101;BME280;4093;53.470;9.832;2023-08-20T03:05:26;102062.16;;;21.36;87.66
8101;BME280;4093;53.470;9.832;2023-08-20T03:07:54;102071.66;;;21.61;86.42
8101;BME280;4093;53.470;9.832;2023-08-20T03:10:21;102070.53;;;21.87;85.91
8101;BME280;4093;53.470;9.832;2023-08-20T03:12:50;102064.34;;;21.88;83.92
8101;BME280;4093;53.470;9.832;2023-08-20T03:15:18;102071.25;;;21.90;84.74
8101;BME280;4093;53.470;9.832;2023-08-20T03:17:46;102052.56;;;21.56;83.59
8101;BME280;4093;53.470;9.832;2023-08-20T03:20:14;102060.31;;;21.38;86.68
8101;BME280;4093;53.470;9.832;2023-08-20T03:22:42;102061.38;;;21.33;86.58
8101;BME280;4093;53.470;9.832;2023-08-20T03:25:09;102068.47;;;21.53;86.33
8101;BME280;4093;53.470;9.832;2023-08-20T03:27:37;102068.72;;;21.46;86.97
8101;BME280;4093;53.470;9.832;2023-08-20T03:30:07;102072.84;;;21.32;88.68
8101;BME280;4093;53.470;9.832;2023-08-20T03:32:35;102075.59;;;21.71;86.89
8101;BME280;4093;53.470;9.832;2023-08-20T03:35:03;102075.28;;;21.58;87.64
8101;BME280;4093;53.470;9.832;2023-08-20T03:37:31;102080.63;;;21.57;88.29
8101;BME280;4093;53.470;9.832;2023-08-20T03:39:59;102089.09;;;21.63;88.77
8101;BME280;4093;53.470;9.832;2023-08-20T03:42:27;102083.94;;;21.40;88.55
8101;BME280;4093;53.470;9.832;2023-08-20T03:44:55;102097.78;;;21.45;90.33
8101;BME280;4093;53.470;9.832;2023-08-20T03:47:24;102102.34;;;21.82;87.86
8101;BME280;4093;53.470;9.832;2023-08-20T03:49:52;102104.63;;;22.10;87.79
8101;BME280;4093;53.470;9.832;2023-08-20T03:52:19;102103.00;;;22.08;87.83
8101;BME280;4093;53.470;9.832;2023-08-20T03:54:47;102107.88;;;22.17;87.10
8101;BME280;4093;53.470;9.832;2023-08-20T03:57:16;102104.78;;;22.07;88.10
8101;BME280;4093;53.470;9.832;2023-08-20T03:59:44;102109.19;;;21.86;89.06
8101;BME280;4093;53.470;9.832;2023-08-20T04:02:13;102114.72;;;22.21;88.09
8101;BME280;4093;53.470;9.832;2023-08-20T04:04:42;102113.19;;;22.36;86.38
8101;BME280;4093;53.470;9.832;2023-08-20T04:07:10;102101.94;;;22.32;86.06
8101;BME280;4093;53.470;9.832;2023-08-20T04:09:37;102107.38;;;22.48;86.36
8101;BME280;4093;53.470;9.832;2023-08-20T04:12:06;102103.91;;;22.67;85.83
8101;BME280;4093;53.470;9.832;2023-08-20T04:14:34;102101.44;;;22.43;86.37
8101;BME280;4093;53.470;9.832;2023-08-20T04:17:02;102099.09;;;22.56;85.95
8101;BME280;4093;53.470;9.832;2023-08-20T04:19:29;102106.25;;;22.54;86.39
8101;BME280;4093;53.470;9.832;2023-08-20T04:21:58;102109.50;;;22.59;85.89
8101;BME280;4093;53.470;9.832;2023-08-20T04:24:26;102106.16;;;22.74;85.74
8101;BME280;4093;53.470;9.832;2023-08-20T04:26:54;102100.94;;;22.35;85.48
8101;BME280;4093;53.470;9.832;2023-08-20T04:29:22;102108.22;;;22.49;85.21
8101;BME280;4093;53.470;9.832;2023-08-20T04:31:49;102105.78;;;22.25;87.35
8101;BME280;4093;53.470;9.832;2023-08-20T04:34:17;102115.66;;;22.59;85.97
8101;BME280;4093;53.470;9.832;2023-08-20T04:36:45;102108.94;;;22.71;85.71
8101;BME280;4093;53.470;9.832;2023-08-20T04:39:14;102110.22;;;22.62;84.55
8101;BME280;4093;53.470;9.832;2023-08-20T04:41:41;102109.50;;;22.78;85.20
8101;BME280;4093;53.470;9.832;2023-08-20T04:44:09;102112.13;;;22.59;85.20
8101;BME280;4093;53.470;9.832;2023-08-20T04:46:37;102112.66;;;22.67;85.63
8101;BME280;4093;53.470;9.832;2023-08-20T04:49:05;102113.72;;;22.82;84.41
8101;BME280;4093;53.470;9.832;2023-08-20T04:51:33;102106.53;;;22.85;85.15
8101;BME280;4093;53.470;9.832;2023-08-20T04:54:00;102110.06;;;22.84;84.80
8101;BME280;4093;53.470;9.832;2023-08-20T04:56:29;102112.16;;;22.97;83.86
8101;BME280;4093;53.470;9.832;2023-08-20T04:58:57;102094.72;;;22.56;85.15
8101;BME280;4093;53.470;9.832;2023-08-20T05:01:25;102104.38;;;22.56;85.58
8101;BME280;4093;53.470;9.832;2023-08-20T05:03:52;102106.88;;;22.78;85.12
8101;BME280;4093;53.470;9.832;2023-08-20T05:06:20;102098.09;;;22.58;85.01
8101;BME280;4093;53.470;9.832;2023-08-20T05:08:48;102105.25;;;22.75;84.57
8101;BME280;4093;53.470;9.832;2023-08-20T05:11:15;102116.72;;;23.12;84.14
8101;BME280;4093;53.470;9.832;2023-08-20T05:13:45;102091.97;;;22.77;84.07
8101;BME280;4093;53.470;9.832;2023-08-20T05:16:13;102105.53;;;23.07;84.31
8101;BME280;4093;53.470;9.832;2023-08-20T05:18:40;102097.69;;;22.86;85.09
8101;BME280;4093;53.470;9.832;2023-08-20T05:21:08;102082.84;;;22.46;85.81
8101;BME280;4093;53.470;9.832;2023-08-20T05:23:39;102085.16;;;22.54;87.05
8101;BME280;4093;53.470;9.832;2023-08-20T05:26:07;102086.63;;;23.16;84.09
8101;BME280;4093;53.470;9.832;2023-08-20T05:28:35;102068.69;;;24.43;78.90
8101;BME280;4093;53.470;9.832;2023-08-20T05:31:04;102021.94;;;23.07;83.40
8101;BME280;4093;53.470;9.832;2023-08-20T05:33:32;102067.88;;;25.36;77.76
8101;BME280;4093;53.470;9.832;2023-08-20T05:36:00;102044.75;;;28.37;68.07
8101;BME280;4093;53.470;9.832;2023-08-20T05:38:27;102029.41;;;30.06;60.44
8101;BME280;4093;53.470;9.832;2023-08-20T05:40:55;102029.88;;;31.63;58.07
8101;BME280;4093;53.470;9.832;2023-08-20T05:43:23;102020.22;;;32.12;54.78
8101;BME280;4093;53.470;9.832;2023-08-20T05:45:50;102012.34;;;32.20;54.13
8101;BME280;4093;53.470;9.832;2023-08-20T05:48:20;102015.94;;;31.69;54.84
8101;BME280;4093;53.470;9.832;2023-08-20T05:50:47;102034.50;;;30.32;56.96
8101;BME280;4093;53.470;9.832;2023-08-20T05:53:15;102050.44;;;28.94;62.53
8101;BME280;4093;53.470;9.832;2023-08-20T05:55:43;102054.91;;;28.69;62.72
8101;BME280;4093;53.470;9.832;2023-08-20T05:58:10;102052.47;;;28.04;65.02
8101;BME280;4093;53.470;9.832;2023-08-20T06:00:38;102064.41;;;28.60;63.27
8101;BME280;4093;53.470;9.832;2023-08-20T06:03:06;102051.06;;;28.36;64.63
8101;BME280;4093;53.470;9.832;2023-08-20T06:05:35;102057.44;;;28.83;63.24
8101;BME280;4093;53.470;9.832;2023-08-20T06:08:04;102047.66;;;28.34;65.25
8101;BME280;4093;53.470;9.832;2023-08-20T06:10:32;102053.50;;;28.76;63.67
8101;BME280;4093;53.470;9.832;2023-08-20T06:12:59;102055.06;;;28.05;65.99
8101;BME280;4093;53.470;9.832;2023-08-20T06:15:27;102064.94;;;27.78;67.28
8101;BME280;4093;53.470;9.832;2023-08-20T06:17:55;102064.19;;;27.23;68.55
8101;BME280;4093;53.470;9.832;2023-08-20T06:20:22;102064.50;;;26.07;72.00
8101;BME280;4093;53.470;9.832;2023-08-20T06:22:51;102081.28;;;26.50;72.30
8101;BME280;4093;53.470;9.832;2023-08-20T06:25:19;102079.94;;;26.43;72.60
8101;BME280;4093;53.470;9.832;2023-08-20T06:27:47;102075.97;;;26.36;72.64
8101;BME280;4093;53.470;9.832;2023-08-20T06:30:14;102079.00;;;26.59;70.92
8101;BME280;4093;53.470;9.832;2023-08-20T06:32:44;102077.75;;;26.91;70.48
8101;BME280;4093;53.470;9.832;2023-08-20T06:35:12;102086.31;;;26.82;71.49
8101;BME280;4093;53.470;9.832;2023-08-20T06:37:39;102107.44;;;27.25;70.78
8101;BME280;4093;53.470;9.832;2023-08-20T06:40:09;102104.31;;;26.50;71.89
8101;BME280;4093;53.470;9.832;2023-08-20T06:42:37;102100.81;;;26.49;72.60
8101;BME280;4093;53.470;9.832;2023-08-20T06:45:07;102113.00;;;27.08;70.35
8101;BME280;4093;53.470;9.832;2023-08-20T06:47:35;102105.84;;;27.22;70.06
8101;BME280;4093;53.470;9.832;2023-08-20T06:50:05;102105.81;;;27.89;66.60
8101;BME280;4093;53.470;9.832;2023-08-20T06:52:33;102100.25;;;27.27;69.27
8101;BME280;4093;53.470;9.832;2023-08-20T06:55:01;102106.47;;;29.05;63.81
8101;BME280;4093;53.470;9.832;2023-08-20T06:57:30;102101.81;;;29.90;61.12
8101;BME280;4093;53.470;9.832;2023-08-20T06:59:58;102098.53;;;30.65;58.92
8101;BME280;4093;53.470;9.832;2023-08-20T07:02:26;102090.41;;;28.57;63.93
8101;BME280;4093;53.470;9.832;2023-08-20T07:04:53;102092.88;;;28.34;65.37
8101;BME280;4093;53.470;9.832;2023-08-20T07:07:21;102098.75;;;29.72;62.69
8101;BME280;4093;53.470;9.832;2023-08-20T07:09:49;102106.59;;;31.41;58.18
8101;BME280;4093;53.470;9.832;2023-08-20T07:12:17;102087.38;;;31.15;57.14
8101;BME280;4093;53.470;9.832;2023-08-20T07:14:46;102081.03;;;31.16;58.28
8101;BME280;4093;53.470;9.832;2023-08-20T07:17:13;102090.47;;;31.73;56.40
8101;BME280;4093;53.470;9.832;2023-08-20T07:19:41;102084.38;;;32.63;54.72
8101;BME280;4093;53.470;9.832;2023-08-20T07:22:09;102087.34;;;31.89;54.60
8101;BME280;4093;53.470;9.832;2023-08-20T07:24:37;102089.75;;;30.86;56.19
8101;BME280;4093;53.470;9.832;2023-08-20T07:27:04;102103.25;;;32.52;54.55
8101;BME280;4093;53.470;9.832;2023-08-20T07:29:37;102105.16;;;32.00;55.31
8101;BME280;4093;53.470;9.832;2023-08-20T07:32:06;102096.38;;;31.77;54.95
8101;BME280;4093;53.470;9.832;2023-08-20T07:34:34;102105.03;;;30.95;57.41
8101;BME280;4093;53.470;9.832;2023-08-20T07:37:02;102107.50;;;30.64;58.73
8101;BME280;4093;53.470;9.832;2023-08-20T07:39:31;102114.56;;;32.25;56.28
8101;BME280;4093;53.470;9.832;2023-08-20T07:41:59;102115.38;;;33.26;52.77
8101;BME280;4093;53.470;9.832;2023-08-20T07:44:26;102100.47;;;33.80;50.17
8101;BME280;4093;53.470;9.832;2023-08-20T07:46:54;102097.00;;;33.02;51.50
8101;BME280;4093;53.470;9.832;2023-08-20T07:49:24;102095.72;;;33.64;50.75
8101;BME280;4093;53.470;9.832;2023-08-20T07:51:51;102113.84;;;34.64;48.46
8101;BME280;4093;53.470;9.832;2023-08-20T07:54:20;102098.69;;;35.53;45.25
8101;BME280;4093;53.470;9.832;2023-08-20T07:56:48;102113.47;;;35.49;47.77
8101;BME280;4093;53.470;9.832;2023-08-20T07:59:16;102103.25;;;36.47;44.75
8101;BME280;4093;53.470;9.832;2023-08-20T08:01:44;102091.72;;;36.79;44.55
8101;BME280;4093;53.470;9.832;2023-08-20T08:04:11;102105.13;;;34.80;47.55
8101;BME280;4093;53.470;9.832;2023-08-20T08:06:40;102128.22;;;37.40;43.43
8101;BME280;4093;53.470;9.832;2023-08-20T08:09:17;102110.78;;;38.39;40.44
8101;BME280;4093;53.470;9.832;2023-08-20T08:11:45;102117.72;;;37.70;43.26
8101;BME280;4093;53.470;9.832;2023-08-20T08:14:13;102121.69;;;38.15;41.81
8101;BME280;4093;53.470;9.832;2023-08-20T08:16:41;102120.03;;;38.76;40.80
8101;BME280;4093;53.470;9.832;2023-08-20T08:19:08;102121.09;;;38.67;40.56
8101;BME280;4093;53.470;9.832;2023-08-20T08:21:36;102129.41;;;40.02;38.41
8101;BME280;4093;53.470;9.832;2023-08-20T08:24:05;102128.09;;;39.07;39.49
8101;BME280;4093;53.470;9.832;2023-08-20T08:26:34;102125.78;;;38.73;40.46
8101;BME280;4093;53.470;9.832;2023-08-20T08:29:02;102135.16;;;39.17;40.59
8101;BME280;4093;53.470;9.832;2023-08-20T08:31:30;102129.84;;;39.61;39.63
8101;BME280;4093;53.470;9.832;2023-08-20T08:33:58;102135.94;;;39.63;38.00
8101;BME280;4093;53.470;9.832;2023-08-20T08:36:25;102146.31;;;38.20;40.86
8101;BME280;4093;53.470;9.832;2023-08-20T08:38:54;102149.66;;;38.70;39.58
8101;BME280;4093;53.470;9.832;2023-08-20T08:41:25;102132.16;;;38.18;39.02
8101;BME280;4093;53.470;9.832;2023-08-20T08:43:53;102139.38;;;38.26;40.69
8101;BME280;4093;53.470;9.832;2023-08-20T08:46:23;102145.69;;;38.88;39.92
8101;BME280;4093;53.470;9.832;2023-08-20T08:48:52;102146.09;;;37.41;40.44
8101;BME280;4093;53.470;9.832;2023-08-20T08:51:20;102162.06;;;36.94;42.66
8101;BME280;4093;53.470;9.832;2023-08-20T08:53:47;102159.63;;;37.33;42.93
8101;BME280;4093;53.470;9.832;2023-08-20T08:56:15;102177.03;;;39.29;39.42
8101;BME280;4093;53.470;9.832;2023-08-20T08:58:44;102146.28;;;37.48;41.39
8101;BME280;4093;53.470;9.832;2023-08-20T09:01:13;102155.88;;;38.00;40.86
8101;BME280;4093;53.470;9.832;2023-08-20T09:03:41;102168.31;;;39.19;40.47
8101;BME280;4093;53.470;9.832;2023-08-20T09:06:09;102164.44;;;39.13;39.46
8101;BME280;4093;53.470;9.832;2023-08-20T09:08:37;102149.91;;;39.90;37.53
8101;BME280;4093;53.470;9.832;2023-08-20T09:11:05;102146.22;;;39.30;40.17
8101;BME280;4093;53.470;9.832;2023-08-20T09:13:34;102129.53;;;38.41;40.02
8101;BME280;4093;53.470;9.832;2023-08-20T09:16:05;102152.44;;;36.83;43.39
8101;BME280;4093;53.470;9.832;2023-08-20T09:18:37;102148.38;;;36.71;42.90
8101;BME280;4093;53.470;9.832;2023-08-20T09:21:06;102146.59;;;34.77;46.39
8101;BME280;4093;53.470;9.832;2023-08-20T09:23:35;102168.28;;;36.09;44.25
8101;BME280;4093;53.470;9.832;2023-08-20T09:26:03;102157.66;;;35.82;45.46
8101;BME280;4093;53.470;9.832;2023-08-20T09:28:40;102141.97;;;33.95;48.51
8101;BME280;4093;53.470;9.832;2023-08-20T09:31:09;102146.41;;;33.48;49.98
8101;BME280;4093;53.470;9.832;2023-08-20T09:33:48;102158.53;;;32.22;51.22
8101;BME280;4093;53.470;9.832;2023-08-20T09:36:17;102157.06;;;31.34;54.04
8101;BME280;4093;53.470;9.832;2023-08-20T09:38:45;102178.50;;;32.18;53.47
8101;BME280;4093;53.470;9.832;2023-08-20T09:41:17;102158.56;;;31.48;53.47
8101;BME280;4093;53.470;9.832;2023-08-20T09:43:46;102177.72;;;31.21;56.12
8101;BME280;4093;53.470;9.832;2023-08-20T09:46:19;102165.53;;;31.40;54.05
8101;BME280;4093;53.470;9.832;2023-08-20T09:48:48;102176.00;;;30.43;57.61
8101;BME280;4093;53.470;9.832;2023-08-20T09:51:20;102184.25;;;30.40;57.34
8101;BME280;4093;53.470;9.832;2023-08-20T09:53:55;102188.00;;;30.60;57.53
8101;BME280;4093;53.470;9.832;2023-08-20T09:56:27;102176.09;;;30.75;56.54
8101;BME280;4093;53.470;9.832;2023-08-20T09:58:57;102161.78;;;30.54;57.47
8101;BME280;4093;53.470;9.832;2023-08-20T10:01:27;102168.19;;;30.96;58.32
8101;BME280;4093;53.470;9.832;2023-08-20T10:03:55;102171.75;;;30.63;59.14
8101;BME280;4093;53.470;9.832;2023-08-20T10:06:23;102163.72;;;30.97;55.95
8101;BME280;4093;53.470;9.832;2023-08-20T10:08:53;102135.25;;;31.07;55.00
8101;BME280;4093;53.470;9.832;2023-08-20T10:11:21;102149.28;;;30.65;57.71
8101;BME280;4093;53.470;9.832;2023-08-20T10:13:49;102142.44;;;29.94;58.57
8101;BME280;4093;53.470;9.832;2023-08-20T10:16:17;102157.78;;;30.48;58.39
8101;BME280;4093;53.470;9.832;2023-08-20T10:18:48;102154.88;;;30.85;57.89
8101;BME280;4093;53.470;9.832;2023-08-20T10:21:16;102152.03;;;31.41;56.40
8101;BME280;4093;53.470;9.832;2023-08-20T10:23:48;102147.44;;;31.32;57.23
8101;BME280;4093;53.470;9.832;2023-08-20T10:26:16;102148.56;;;31.18;56.87
8101;BME280;4093;53.470;9.832;2023-08-20T10:28:45;102133.78;;;31.46;54.63
8101;BME280;4093;53.470;9.832;2023-08-20T10:31:13;102124.16;;;31.11;54.55
8101;BME280;4093;53.470;9.832;2023-08-20T10:33:53;102120.53;;;30.35;56.78
8101;BME280;4093;53.470;9.832;2023-08-20T10:36:22;102130.53;;;29.87;58.39
8101;BME280;4093;53.470;9.832;2023-08-20T10:38:54;102137.88;;;30.30;58.79
8101;BME280;4093;53.470;9.832;2023-08-20T10:41:27;102119.78;;;30.78;56.05
8101;BME280;4093;53.470;9.832;2023-08-20T10:43:57;102116.75;;;30.49;56.29
8101;BME280;4093;53.470;9.832;2023-08-20T10:46:26;102130.91;;;30.95;55.77
8101;BME280;4093;53.470;9.832;2023-08-20T10:48:58;102137.63;;;30.66;57.05
8101;BME280;4093;53.470;9.832;2023-08-20T10:51:27;102127.19;;;30.18;56.42
8101;BME280;4093;53.470;9.832;2023-08-20T10:54:06;102141.47;;;30.06;57.72
8101;BME280;4093;53.470;9.832;2023-08-20T10:56:39;102139.72;;;30.40;57.07
8101;BME280;4093;53.470;9.832;2023-08-20T10:59:08;102139.06;;;30.03;58.39
8101;BME280;4093;53.470;9.832;2023-08-20T11:01:36;102141.03;;;29.77;58.13
8101;BME280;4093;53.470;9.832;2023-08-20T11:04:06;102148.25;;;29.88;59.49
8101;BME280;4093;53.470;9.832;2023-08-20T11:06:34;102148.88;;;30.03;57.44
8101;BME280;4093;53.470;9.832;2023-08-20T11:09:02;102139.19;;;30.24;57.06
8101;BME280;4093;53.470;9.832;2023-08-20T11:11:32;102145.31;;;30.37;56.90
8101;BME280;4093;53.470;9.832;2023-08-20T11:14:05;102148.34;;;30.22;57.82
8101;BME280;4093;53.470;9.832;2023-08-20T11:16:34;102138.63;;;30.43;57.20
8101;BME280;4093;53.470;9.832;2023-08-20T11:19:03;102148.69;;;30.84;56.99
8101;BME280;4093;53.470;9.832;2023-08-20T11:21:37;102147.09;;;30.82;57.44
8101;BME280;4093;53.470;9.832;2023-08-20T11:24:06;102145.97;;;31.39;56.00
8101;BME280;4093;53.470;9.832;2023-08-20T11:26:35;102134.38;;;31.50;54.47
8101;BME280;4093;53.470;9.832;2023-08-20T11:29:05;102147.63;;;31.93;54.33
8101;BME280;4093;53.470;9.832;2023-08-20T11:31:33;102140.19;;;31.76;54.52
8101;BME280;4093;53.470;9.832;2023-08-20T11:34:01;102141.91;;;31.98;53.53
8101;BME280;4093;53.470;9.832;2023-08-20T11:36:29;102127.66;;;31.55;54.15
8101;BME280;4093;53.470;9.832;2023-08-20T11:38:59;102125.56;;;31.38;55.32
8101;BME280;4093;53.470;9.832;2023-08-20T11:41:27;102128.69;;;30.34;57.21
8101;BME280;4093;53.470;9.832;2023-08-20T11:43:54;102132.03;;;30.13;56.21
8101;BME280;4093;53.470;9.832;2023-08-20T11:46:23;102135.19;;;30.63;56.33
8101;BME280;4093;53.470;9.832;2023-08-20T11:49:02;102121.97;;;29.59;57.47
8101;BME280;4093;53.470;9.832;2023-08-20T11:51:35;102142.06;;;29.87;57.72
8101;BME280;4093;53.470;9.832;2023-08-20T11:54:07;102150.25;;;30.87;55.85
8101;BME280;4093;53.470;9.832;2023-08-20T11:56:35;102130.09;;;30.83;56.32
8101;BME280;4093;53.470;9.832;2023-08-20T11:59:05;102142.28;;;31.51;55.45
8101;BME280;4093;53.470;9.832;2023-08-20T12:01:32;102130.94;;;31.59;54.88
8101;BME280;4093;53.470;9.832;2023-08-20T12:04:01;102124.91;;;31.67;54.98
8101;BME280;4093;53.470;9.832;2023-08-20T12:06:29;102119.03;;;31.52;53.63
8101;BME280;4093;53.470;9.832;2023-08-20T12:08:57;102113.88;;;31.39;54.36
8101;BME280;4093;53.470;9.832;2023-08-20T12:11:27;102126.09;;;31.53;54.73
8101;BME280;4093;53.470;9.832;2023-08-20T12:13:56;102132.94;;;32.09;53.58
8101;BME280;4093;53.470;9.832;2023-08-20T12:16:24;102115.59;;;31.29;54.20
8101;BME280;4093;53.470;9.832;2023-08-20T12:18:52;102132.94;;;31.46;54.65
8101;BME280;4093;53.470;9.832;2023-08-20T12:21:20;102124.06;;;31.45;55.59
8101;BME280;4093;53.470;9.832;2023-08-20T12:23:48;102113.28;;;31.36;56.18
8101;BME280;4093;53.470;9.832;2023-08-20T12:26:16;102121.38;;;31.45;54.66
8101;BME280;4093;53.470;9.832;2023-08-20T12:28:46;102117.72;;;30.48;56.47
8101;BME280;4093;53.470;9.832;2023-08-20T12:31:13;102127.41;;;31.26;54.57
8101;BME280;4093;53.470;9.832;2023-08-20T12:33:42;102104.66;;;31.00;53.82
8101;BME280;4093;53.470;9.832;2023-08-20T12:36:09;102102.03;;;30.88;53.88
8101;BME280;4093;53.470;9.832;2023-08-20T12:38:37;102114.50;;;30.99;55.00
8101;BME280;4093;53.470;9.832;2023-08-20T12:41:05;102120.69;;;31.32;53.58
8101;BME280;4093;53.470;9.832;2023-08-20T12:43:33;102103.84;;;31.20;53.08
8101;BME280;4093;53.470;9.832;2023-08-20T12:46:02;102098.41;;;31.10;53.35
8101;BME280;4093;53.470;9.832;2023-08-20T12:48:30;102099.75;;;30.84;53.59
8101;BME280;4093;53.470;9.832;2023-08-20T12:50:57;102106.75;;;31.28;53.11
8101;BME280;4093;53.470;9.832;2023-08-20T12:53:25;102101.56;;;31.69;53.73
8101;BME280;4093;53.470;9.832;2023-08-20T12:55:53;102059.09;;;31.54;53.95
8101;BME280;4093;53.470;9.832;2023-08-20T12:58:22;102104.69;;;31.95;54.04
8101;BME280;4093;53.470;9.832;2023-08-20T13:00:50;102093.66;;;31.88;53.03
8101;BME280;4093;53.470;9.832;2023-08-20T13:03:20;102078.44;;;31.26;54.08
8101;BME280;4093;53.470;9.832;2023-08-20T13:05:48;102097.31;;;31.45;54.09
8101;BME280;4093;53.470;9.832;2023-08-20T13:08:16;102088.78;;;31.19;53.77
8101;BME280;4093;53.470;9.832;2023-08-20T13:10:48;102106.59;;;31.41;54.28
8101;BME280;4093;53.470;9.832;2023-08-20T13:13:19;102104.91;;;31.40;54.08
8101;BME280;4093;53.470;9.832;2023-08-20T13:15:48;102114.41;;;31.54;56.10
8101;BME280;4093;53.470;9.832;2023-08-20T13:18:18;102087.31;;;30.94;54.21